createdAt,value
2023-09-18T00:01:29.752Z,1.33
2023-09-18T00:03:59.124Z,0.97
2023-09-18T00:06:27.543Z,0.90
2023-09-18T00:08:55.930Z,0.70
2023-09-18T00:11:24.314Z,0.83
2023-09-18T00:13:54.114Z,0.50
2023-09-18T00:16:22.499Z,0.40
2023-09-18T00:18:51.074Z,0.50
2023-09-18T00:21:19.661Z,0.70
2023-09-18T00:23:47.977Z,0.60
2023-09-18T00:26:16.331Z,0.70
2023-09-18T00:28:44.705Z,0.57
2023-09-18T00:31:14.465Z,1.43
2023-09-18T00:33:42.934Z,0.80
2023-09-18T00:36:11.739Z,1.57
2023-09-18T00:38:40.048Z,1.30
2023-09-18T00:41:08.527Z,0.90
2023-09-18T00:43:37.273Z,0.93
2023-09-18T00:46:05.748Z,1.70
2023-09-18T00:48:35.668Z,0.77
2023-09-18T00:51:04.587Z,1.37
2023-09-18T00:53:33.747Z,1.30
2023-09-18T00:56:03.427Z,1.47
2023-09-18T00:58:31.986Z,2.10
2023-09-18T01:01:00.770Z,0.77
2023-09-18T01:03:29.471Z,1.33
2023-09-18T01:05:59.234Z,0.70
2023-09-18T01:08:27.752Z,1.20
2023-09-18T01:11:04.416Z,0.50
2023-09-18T01:13:39.281Z,1.23
2023-09-18T01:16:12.940Z,0.57
2023-09-18T01:18:41.276Z,0.40
2023-09-18T01:21:10.889Z,0.77
2023-09-18T01:23:40.586Z,0.70
2023-09-18T01:26:09.338Z,1.23
2023-09-18T01:28:37.731Z,1.40
2023-09-18T01:31:06.109Z,0.83
2023-09-18T01:33:37.072Z,1.57
2023-09-18T01:36:08.865Z,1.13
2023-09-18T01:38:38.932Z,1.10
2023-09-18T01:41:10.454Z,1.07
2023-09-18T01:43:38.755Z,1.80
2023-09-18T01:46:07.914Z,1.17
2023-09-18T01:48:36.281Z,1.73
2023-09-18T01:51:04.633Z,0.57
2023-09-18T01:53:33.097Z,0.90
2023-09-18T01:56:01.611Z,0.40
2023-09-18T01:58:31.576Z,0.43
2023-09-18T02:01:03.118Z,0.83
2023-09-18T02:03:42.402Z,1.13
2023-09-18T02:06:20.214Z,0.80
2023-09-18T02:08:48.673Z,1.43
2023-09-18T02:11:17.079Z,1.20
2023-09-18T02:13:46.838Z,0.77
2023-09-18T02:16:15.222Z,1.57
2023-09-18T02:18:44.706Z,1.83
2023-09-18T02:21:12.017Z,1.97
2023-09-18T02:23:40.300Z,1.23
2023-09-18T02:26:09.558Z,1.37
2023-09-18T02:28:37.932Z,1.83
2023-09-18T02:31:07.586Z,1.63
2023-09-18T02:33:35.896Z,1.80
2023-09-18T02:36:04.306Z,1.27
2023-09-18T02:38:32.705Z,1.77
2023-09-18T02:41:01.262Z,1.40
2023-09-18T02:43:29.600Z,2.07
2023-09-18T02:45:57.971Z,1.20
2023-09-18T02:48:27.760Z,1.20
2023-09-18T02:50:56.039Z,0.53
2023-09-18T02:53:25.745Z,0.40
2023-09-18T02:55:55.758Z,0.97
2023-09-18T02:58:29.170Z,1.00
2023-09-18T03:00:59.631Z,0.60
2023-09-18T03:03:29.435Z,1.17
2023-09-18T03:06:04.224Z,1.30
2023-09-18T03:08:32.975Z,1.43
2023-09-18T03:11:01.540Z,1.40
2023-09-18T03:13:30.528Z,1.63
2023-09-18T03:15:58.850Z,1.37
2023-09-18T03:18:28.543Z,0.73
2023-09-18T03:20:56.884Z,0.73
2023-09-18T03:23:25.308Z,0.60
2023-09-18T03:25:53.602Z,0.60
2023-09-18T03:28:22.005Z,0.90
2023-09-18T03:30:49.231Z,0.87
2023-09-18T03:33:17.607Z,1.10
2023-09-18T03:35:51.983Z,1.00
2023-09-18T03:38:20.440Z,1.93
2023-09-18T03:40:48.727Z,2.33
2023-09-18T03:43:17.011Z,2.10
2023-09-18T03:45:45.282Z,1.57
2023-09-18T03:48:13.725Z,2.20
2023-09-18T03:50:43.123Z,2.33
2023-09-18T03:53:13.213Z,0.90
2023-09-18T03:55:41.500Z,0.77
2023-09-18T03:58:09.816Z,0.80
2023-09-18T04:00:38.602Z,1.10
2023-09-18T04:03:06.970Z,3.30
2023-09-18T04:05:35.361Z,1.50
2023-09-18T04:08:03.699Z,1.70
2023-09-18T04:10:34.297Z,1.63
2023-09-18T04:13:02.748Z,1.90
2023-09-18T04:15:32.422Z,1.47
2023-09-18T04:18:00.774Z,1.07
2023-09-18T04:20:29.515Z,1.90
2023-09-18T04:23:23.766Z,0.70
2023-09-18T04:25:54.346Z,0.50
2023-09-18T04:28:23.925Z,1.07
2023-09-18T04:30:52.421Z,0.83
2023-09-18T04:33:22.845Z,1.20
2023-09-18T04:35:51.584Z,1.60
2023-09-18T04:38:20.949Z,1.60
2023-09-18T04:40:49.588Z,1.00
2023-09-18T04:43:19.223Z,0.80
2023-09-18T04:45:47.771Z,1.30
2023-09-18T04:48:16.120Z,0.93
2023-09-18T04:50:44.740Z,0.63
2023-09-18T04:53:13.186Z,0.60
2023-09-18T04:55:41.508Z,1.10
2023-09-18T04:58:09.923Z,1.17
2023-09-18T05:00:39.619Z,0.40
2023-09-18T05:03:09.572Z,0.80
2023-09-18T05:05:38.221Z,0.40
2023-09-18T05:08:09.371Z,0.60
2023-09-18T05:10:37.966Z,0.53
2023-09-18T05:13:06.278Z,1.00
2023-09-18T05:15:34.730Z,0.57
2023-09-18T05:18:05.457Z,0.40
2023-09-18T05:20:34.287Z,0.70
2023-09-18T05:23:03.614Z,0.97
2023-09-18T05:25:34.020Z,0.70
2023-09-18T05:28:05.374Z,0.97
2023-09-18T05:30:36.424Z,0.70
2023-09-18T05:33:07.697Z,0.50
2023-09-18T05:35:37.965Z,0.70
2023-09-18T05:38:06.454Z,1.07
2023-09-18T05:40:35.081Z,0.60
2023-09-18T05:43:03.493Z,1.10
2023-09-18T05:45:32.965Z,0.97
2023-09-18T05:48:05.480Z,1.27
2023-09-18T05:50:38.130Z,0.67
2023-09-18T05:53:07.087Z,0.90
2023-09-18T05:55:36.282Z,0.80
2023-09-18T05:58:06.236Z,0.40
2023-09-18T06:00:34.977Z,1.07
2023-09-18T06:03:03.645Z,0.40
2023-09-18T06:05:35.194Z,0.80
2023-09-18T06:08:05.595Z,0.50
2023-09-18T06:10:33.977Z,0.67
2023-09-18T06:13:05.633Z,0.83
2023-09-18T06:15:34.483Z,0.57
2023-09-18T06:18:03.130Z,0.50
2023-09-18T06:20:31.766Z,0.70
2023-09-18T06:23:00.237Z,0.77
2023-09-18T06:25:29.942Z,1.67
2023-09-18T06:27:58.265Z,1.47
2023-09-18T06:30:26.614Z,1.77
2023-09-18T06:32:55.409Z,1.27
2023-09-18T06:35:23.901Z,1.07
2023-09-18T06:37:52.310Z,1.37
2023-09-18T06:40:20.735Z,0.70
2023-09-18T06:42:50.924Z,1.07
2023-09-18T06:45:19.472Z,0.87
2023-09-18T06:47:48.299Z,0.77
2023-09-18T06:50:16.758Z,0.90
2023-09-18T06:52:45.091Z,0.80
2023-09-18T06:55:13.360Z,0.57
2023-09-18T06:57:42.454Z,0.73
2023-09-18T07:00:15.517Z,0.67
2023-09-18T07:02:44.014Z,0.70
2023-09-18T07:05:12.464Z,1.90
2023-09-18T07:07:40.827Z,1.23
2023-09-18T07:10:09.837Z,1.40
2023-09-18T07:12:38.708Z,1.60
2023-09-18T07:15:08.524Z,0.70
2023-09-18T07:17:38.352Z,1.00
2023-09-18T07:20:15.382Z,1.43
2023-09-18T07:22:49.493Z,0.90
2023-09-18T07:25:18.111Z,1.30
2023-09-18T07:27:46.416Z,1.37
2023-09-18T07:30:17.383Z,2.10
2023-09-18T07:32:47.828Z,1.43
2023-09-18T07:35:17.379Z,2.30
2023-09-18T07:37:48.284Z,1.20
2023-09-18T07:40:18.098Z,1.07
2023-09-18T07:42:46.860Z,1.20
2023-09-18T07:45:15.860Z,0.70
2023-09-18T07:47:44.207Z,1.17
2023-09-18T07:50:17.208Z,0.50
2023-09-18T07:52:46.895Z,1.20
2023-09-18T07:55:15.115Z,0.83
2023-09-18T07:57:45.748Z,2.60
2023-09-18T08:00:16.907Z,1.03
2023-09-18T08:02:45.642Z,1.20
2023-09-18T08:05:16.130Z,0.57
2023-09-18T08:07:44.420Z,0.70
2023-09-18T08:10:14.011Z,0.83
2023-09-18T08:12:42.313Z,0.47
2023-09-18T08:15:11.329Z,0.67
2023-09-18T08:17:41.569Z,0.97
2023-09-18T08:20:14.439Z,0.60
2023-09-18T08:22:44.842Z,1.10
2023-09-18T08:25:13.867Z,0.97
2023-09-18T08:27:43.323Z,0.93
2023-09-18T08:30:12.955Z,0.67
2023-09-18T08:32:42.340Z,0.83
2023-09-18T08:35:11.872Z,0.97
2023-09-18T08:37:40.223Z,0.70
2023-09-18T08:40:14.473Z,0.80
2023-09-18T08:42:48.109Z,1.30
2023-09-18T08:45:21.456Z,0.87
2023-09-18T08:47:50.605Z,0.60
2023-09-18T08:50:20.108Z,1.47
2023-09-18T08:52:49.734Z,0.57
2023-09-18T08:55:20.136Z,0.60
2023-09-18T08:57:49.027Z,0.60
2023-09-18T09:00:18.873Z,1.03
2023-09-18T09:02:50.210Z,1.23
2023-09-18T09:05:19.244Z,0.70
2023-09-18T09:07:47.822Z,0.40
2023-09-18T09:10:16.064Z,0.43
2023-09-18T09:12:59.770Z,0.63
2023-09-18T09:15:30.464Z,0.57
2023-09-18T09:18:07.341Z,1.10
2023-09-18T09:20:36.887Z,0.87
2023-09-18T09:23:06.992Z,0.67
2023-09-18T09:25:35.877Z,0.70
2023-09-18T09:28:07.153Z,0.37
2023-09-18T09:30:37.758Z,0.40
2023-09-18T09:33:07.951Z,0.53
2023-09-18T09:35:38.162Z,0.60
2023-09-18T09:38:10.882Z,0.47
2023-09-18T09:40:41.955Z,0.30
2023-09-18T09:43:14.849Z,0.40
2023-09-18T09:45:43.998Z,0.40
2023-09-18T09:48:12.508Z,0.67
2023-09-18T09:50:48.489Z,0.53
2023-09-18T09:53:17.072Z,0.67
2023-09-18T09:55:45.582Z,0.40
2023-09-18T09:58:15.812Z,0.30
2023-09-18T10:00:47.418Z,0.43
2023-09-18T10:03:18.066Z,0.30
2023-09-18T10:05:47.891Z,0.30
2023-09-18T10:08:20.269Z,0.30
2023-09-18T10:10:50.555Z,0.30
2023-09-18T10:13:23.121Z,0.30
2023-09-18T10:15:53.265Z,0.57
2023-09-18T10:18:29.407Z,0.40
2023-09-18T10:21:04.520Z,0.40
2023-09-18T10:23:48.528Z,0.50
2023-09-18T10:26:26.243Z,0.33
2023-09-18T10:28:59.853Z,0.40
2023-09-18T10:31:30.683Z,0.57
2023-09-18T10:33:59.636Z,0.30
2023-09-18T10:36:28.518Z,0.70
2023-09-18T10:38:57.631Z,0.70
2023-09-18T10:41:26.675Z,0.30
2023-09-18T10:43:58.817Z,0.80
2023-09-18T10:46:28.261Z,0.30
2023-09-18T10:48:57.674Z,0.30
2023-09-18T10:51:27.176Z,0.50
2023-09-18T10:53:55.758Z,0.33
2023-09-18T10:56:24.464Z,0.60
2023-09-18T10:59:01.169Z,0.30
2023-09-18T11:01:30.528Z,0.30
2023-09-18T11:04:02.980Z,0.60
2023-09-18T11:06:32.173Z,0.30
2023-09-18T11:09:11.313Z,0.60
2023-09-18T11:11:39.623Z,0.50
2023-09-18T11:14:14.755Z,0.33
2023-09-18T11:16:44.900Z,0.50
2023-09-18T11:19:16.517Z,0.30
2023-09-18T11:21:44.865Z,0.40
2023-09-18T11:24:19.352Z,0.43
2023-09-18T11:26:49.055Z,0.43
2023-09-18T11:29:20.549Z,0.50
2023-09-18T11:31:51.616Z,0.57
2023-09-18T11:34:24.090Z,0.40
2023-09-18T11:36:53.164Z,0.30
2023-09-18T11:39:38.748Z,0.40
2023-09-18T11:42:12.678Z,0.40
2023-09-18T11:44:47.906Z,0.40
2023-09-18T11:47:22.935Z,0.20
2023-09-18T11:49:55.772Z,0.70
2023-09-18T11:52:26.554Z,0.57
2023-09-18T11:54:55.912Z,0.47
2023-09-18T11:57:24.646Z,0.60
2023-09-18T11:59:54.597Z,0.30
2023-09-18T12:02:36.861Z,0.40
2023-09-18T12:05:13.649Z,0.70
2023-09-18T12:07:44.828Z,0.40
2023-09-18T12:10:14.508Z,0.60
2023-09-18T12:12:44.603Z,0.60
2023-09-18T12:15:16.444Z,0.30
2023-09-18T12:17:44.991Z,0.53
2023-09-18T12:20:20.716Z,0.40
2023-09-18T12:22:51.650Z,0.50
2023-09-18T12:25:20.594Z,0.60
2023-09-18T12:27:54.540Z,0.57
2023-09-18T12:30:25.039Z,0.40
2023-09-18T12:32:54.689Z,0.30
2023-09-18T12:35:24.613Z,0.40
2023-09-18T12:37:53.308Z,0.40
2023-09-18T12:40:26.339Z,0.30
2023-09-18T12:42:56.212Z,0.20
2023-09-18T12:45:26.876Z,0.30
2023-09-18T12:47:58.155Z,0.60
2023-09-18T12:50:27.615Z,0.30
2023-09-18T12:52:56.036Z,0.50
2023-09-18T12:55:26.226Z,0.43
2023-09-18T12:57:54.859Z,0.50
2023-09-18T13:00:28.240Z,0.30
2023-09-18T13:02:57.858Z,0.30
2023-09-18T13:05:28.145Z,0.30
2023-09-18T13:07:59.944Z,0.47
2023-09-18T13:10:29.127Z,0.33
2023-09-18T13:12:59.196Z,0.50
2023-09-18T13:15:31.084Z,0.30
2023-09-18T13:18:01.862Z,0.30
2023-09-18T13:20:31.797Z,0.30
2023-09-18T13:23:02.001Z,0.60
2023-09-18T13:25:32.396Z,0.60
2023-09-18T13:28:00.755Z,0.40
2023-09-18T13:30:30.486Z,0.40
2023-09-18T13:33:07.469Z,0.50
2023-09-18T13:35:40.644Z,0.47
2023-09-18T13:38:09.994Z,0.30
2023-09-18T13:40:38.657Z,0.30
2023-09-18T13:43:07.821Z,0.40
2023-09-18T13:45:38.230Z,0.30
2023-09-18T13:48:07.530Z,0.40
2023-09-18T13:50:37.074Z,0.30
2023-09-18T13:53:06.817Z,0.40
2023-09-18T13:55:35.472Z,0.30
2023-09-18T13:58:05.176Z,0.37
2023-09-18T14:00:34.252Z,0.40
2023-09-18T14:03:05.281Z,0.30
2023-09-18T14:05:35.436Z,0.30
2023-09-18T14:08:05.317Z,0.30
2023-09-18T14:10:33.865Z,0.30
2023-09-18T14:13:02.274Z,0.30
2023-09-18T14:15:30.822Z,0.40
2023-09-18T14:17:59.226Z,0.57
2023-09-18T14:20:29.167Z,0.50
2023-09-18T14:22:57.671Z,0.30
2023-09-18T14:25:27.286Z,0.33
2023-09-18T14:27:55.613Z,0.40
2023-09-18T14:30:27.473Z,0.50
2023-09-18T14:32:55.782Z,0.20
2023-09-18T14:35:24.735Z,0.30
2023-09-18T14:37:54.575Z,0.30
2023-09-18T14:40:28.628Z,0.30
2023-09-18T14:42:56.877Z,0.20
2023-09-18T14:45:25.200Z,0.30
2023-09-18T14:47:53.762Z,0.30
2023-09-18T14:50:22.500Z,0.30
2023-09-18T14:52:51.066Z,0.30
2023-09-18T14:55:20.771Z,0.20
2023-09-18T14:57:55.021Z,0.20
2023-09-18T15:00:23.850Z,0.30
2023-09-18T15:02:52.248Z,0.30
2023-09-18T15:05:20.614Z,0.30
2023-09-18T15:07:48.976Z,0.30
2023-09-18T15:10:17.626Z,0.27
2023-09-18T15:12:51.218Z,0.40
2023-09-18T15:15:20.305Z,0.43
2023-09-18T15:17:48.900Z,0.50
2023-09-18T15:20:18.636Z,0.40
2023-09-18T15:22:47.242Z,0.30
2023-09-18T15:25:16.612Z,0.40
2023-09-18T15:27:45.234Z,0.73
2023-09-18T15:30:16.315Z,0.70
2023-09-18T15:32:54.494Z,0.30
2023-09-18T15:35:23.906Z,0.30
2023-09-18T15:37:52.742Z,0.30
2023-09-18T15:40:22.103Z,0.30
2023-09-18T15:42:51.778Z,0.30
2023-09-18T15:45:21.470Z,0.30
2023-09-18T15:47:49.895Z,0.40
2023-09-18T15:50:18.221Z,0.60
2023-09-18T15:52:46.606Z,0.90
2023-09-18T15:55:15.246Z,0.50
2023-09-18T15:57:44.806Z,0.40
2023-09-18T16:00:14.435Z,0.40
2023-09-18T16:02:44.986Z,0.30
2023-09-18T16:05:14.130Z,0.47
2023-09-18T16:07:43.428Z,0.40
2023-09-18T16:10:12.695Z,0.57
2023-09-18T16:12:40.945Z,0.30
2023-09-18T16:15:11.043Z,0.30
2023-09-18T16:17:39.549Z,0.30
2023-09-18T16:20:11.475Z,0.40
2023-09-18T16:22:41.307Z,0.40
2023-09-18T16:25:10.290Z,0.40
2023-09-18T16:27:38.630Z,0.40
2023-09-18T16:30:10.292Z,0.70
2023-09-18T16:32:40.447Z,0.40
2023-09-18T16:35:11.027Z,0.40
2023-09-18T16:37:40.171Z,0.40
2023-09-18T16:40:12.588Z,0.40
2023-09-18T16:42:40.927Z,1.97
2023-09-18T16:45:10.246Z,0.60
2023-09-18T16:47:38.891Z,1.00
2023-09-18T16:50:08.008Z,0.97
2023-09-18T16:52:40.072Z,0.50
2023-09-18T16:55:09.965Z,1.13
2023-09-18T16:57:38.249Z,0.60
2023-09-18T17:00:09.417Z,1.03
2023-09-18T17:02:37.901Z,1.17
2023-09-18T17:05:07.152Z,0.70
2023-09-18T17:07:35.787Z,0.60
2023-09-18T17:10:06.443Z,0.60
2023-09-18T17:12:38.628Z,0.40
2023-09-18T17:15:09.351Z,0.40
2023-09-18T17:17:37.969Z,0.70
2023-09-18T17:20:07.562Z,0.80
2023-09-18T17:22:36.200Z,0.57
2023-09-18T17:25:07.857Z,0.30
2023-09-18T17:27:36.325Z,0.70
2023-09-18T17:30:06.168Z,0.70
2023-09-18T17:32:35.952Z,0.80
2023-09-18T17:35:04.863Z,0.40
2023-09-18T17:37:33.441Z,0.60
2023-09-18T17:40:01.774Z,0.50
2023-09-18T17:42:31.876Z,0.40
2023-09-18T17:45:00.336Z,0.97
2023-09-18T17:47:28.765Z,0.40
2023-09-18T17:49:57.191Z,0.90
2023-09-18T17:52:25.921Z,0.37
2023-09-18T17:54:55.571Z,0.83
2023-09-18T17:57:24.027Z,0.60
2023-09-18T17:59:53.828Z,0.30
2023-09-18T18:02:22.397Z,0.30
2023-09-18T18:04:53.734Z,0.47
2023-09-18T18:07:22.373Z,1.30
2023-09-18T18:09:50.837Z,0.63
2023-09-18T18:12:21.232Z,0.97
2023-09-18T18:14:51.265Z,0.93
2023-09-18T18:17:21.161Z,0.53
2023-09-18T18:19:51.387Z,0.40
2023-09-18T18:22:19.943Z,0.50
2023-09-18T18:24:48.405Z,1.03
2023-09-18T18:27:16.820Z,0.60
2023-09-18T18:29:45.722Z,0.30
2023-09-18T18:32:14.212Z,0.80
2023-09-18T18:34:46.157Z,0.30
2023-09-18T18:37:14.716Z,0.40
2023-09-18T18:39:43.232Z,0.40
2023-09-18T18:42:11.861Z,0.30
2023-09-18T18:44:40.301Z,0.80
2023-09-18T18:47:09.304Z,0.50
2023-09-18T18:49:37.717Z,0.30
2023-09-18T18:52:08.201Z,0.73
2023-09-18T18:54:37.116Z,0.40
2023-09-18T18:57:06.034Z,0.30
2023-09-18T18:59:34.549Z,0.43
2023-09-18T19:02:05.386Z,0.40
2023-09-18T19:04:35.949Z,0.57
2023-09-18T19:07:05.625Z,0.40
2023-09-18T19:09:35.547Z,0.20
2023-09-18T19:12:06.266Z,0.40
2023-09-18T19:14:35.307Z,0.50
2023-09-18T19:17:06.043Z,0.97
2023-09-18T19:19:35.233Z,0.80
2023-09-18T19:22:04.707Z,0.57
2023-09-18T19:24:34.589Z,0.47
2023-09-18T19:27:04.920Z,0.90
2023-09-18T19:29:35.596Z,0.80
2023-09-18T19:32:04.040Z,0.50
2023-09-18T19:34:32.924Z,0.50
2023-09-18T19:37:08.641Z,0.40
2023-09-18T19:39:40.293Z,0.77
2023-09-18T19:42:10.172Z,0.60
2023-09-18T19:47:10.198Z,0.40
2023-09-18T19:49:38.754Z,0.33
2023-09-18T19:52:08.487Z,0.50
2023-09-18T19:54:38.475Z,0.40
2023-09-18T19:57:07.230Z,0.30
2023-09-18T19:59:35.838Z,0.30
2023-09-18T20:02:07.105Z,0.40
2023-09-18T20:04:36.980Z,0.40
2023-09-18T20:07:09.561Z,0.70
2023-09-18T20:09:39.409Z,0.53
2023-09-18T20:12:10.676Z,0.50
2023-09-18T20:14:39.499Z,0.37
2023-09-18T20:17:08.158Z,0.30
2023-09-18T20:19:36.777Z,0.73
2023-09-18T20:22:05.351Z,0.70
2023-09-18T20:24:33.962Z,0.47
2023-09-18T20:27:04.294Z,0.40
2023-09-18T20:29:33.953Z,0.30
2023-09-18T20:32:02.475Z,0.30
2023-09-18T20:34:30.984Z,0.30
2023-09-18T20:36:59.573Z,0.30
2023-09-18T20:39:28.146Z,0.70
2023-09-18T20:41:57.717Z,0.30
2023-09-18T20:44:27.562Z,0.30
2023-09-18T20:46:56.060Z,0.30
2023-09-18T20:49:24.591Z,0.50
2023-09-18T20:51:53.792Z,0.30
2023-09-18T20:54:22.188Z,1.40
2023-09-18T20:56:50.797Z,0.40
2023-09-18T20:59:19.347Z,0.40
2023-09-18T21:01:49.406Z,0.40
2023-09-18T21:04:18.021Z,0.77
2023-09-18T21:06:46.531Z,0.33
2023-09-18T21:09:14.973Z,0.30
2023-09-18T21:11:45.286Z,0.93
2023-09-18T21:14:13.856Z,1.23
2023-09-18T21:16:42.395Z,0.60
2023-09-18T21:19:12.665Z,0.30
2023-09-18T21:21:41.140Z,0.40
2023-09-18T21:24:10.275Z,0.43
2023-09-18T21:26:39.207Z,0.30
2023-09-18T21:29:07.757Z,0.40
2023-09-18T21:31:36.511Z,0.40
2023-09-18T21:34:05.042Z,0.30
2023-09-18T21:36:35.928Z,0.30
2023-09-18T21:39:04.788Z,0.70
2023-09-18T21:41:33.359Z,0.40
2023-09-18T21:44:01.802Z,0.40
2023-09-18T21:46:32.740Z,0.30
2023-09-18T21:49:01.190Z,0.40
2023-09-18T21:51:30.417Z,0.30
2023-09-18T21:54:00.313Z,0.57
2023-09-18T21:56:28.787Z,0.40
2023-09-18T21:58:57.253Z,0.20
2023-09-18T22:01:25.721Z,0.40
2023-09-18T22:03:54.275Z,0.57
2023-09-18T22:06:22.803Z,0.60
2023-09-18T22:08:51.305Z,0.40
2023-09-18T22:11:21.250Z,0.50
2023-09-18T22:13:50.279Z,0.70
2023-09-18T22:16:18.825Z,0.40
2023-09-18T22:18:49.617Z,0.50
2023-09-18T22:21:18.143Z,0.20
2023-09-18T22:23:46.912Z,0.30
2023-09-18T22:26:15.502Z,0.30
2023-09-18T22:28:45.638Z,0.40
2023-09-18T22:31:20.041Z,0.47
2023-09-18T22:33:49.238Z,0.30
2023-09-18T22:36:27.758Z,0.40
2023-09-18T22:39:10.833Z,0.30
2023-09-18T22:41:40.107Z,0.40
2023-09-18T22:44:45.896Z,0.30
2023-09-18T22:47:51.835Z,0.30
2023-09-18T22:50:57.591Z,0.53
2023-09-18T22:53:26.827Z,0.37
2023-09-18T22:55:57.544Z,0.50
2023-09-18T23:00:58.957Z,0.37
2023-09-18T23:03:28.469Z,1.47
2023-09-18T23:05:57.203Z,0.30
2023-09-18T23:08:25.838Z,0.40
2023-09-18T23:10:54.356Z,0.30
2023-09-18T23:13:26.235Z,0.40
2023-09-18T23:15:54.892Z,0.30
2023-09-18T23:18:24.281Z,0.40
2023-09-18T23:20:53.254Z,0.43
2023-09-18T23:23:22.221Z,0.47
2023-09-18T23:25:55.643Z,0.60
2023-09-18T23:28:25.799Z,0.40
2023-09-18T23:30:55.039Z,0.50
2023-09-18T23:33:25.424Z,0.30
2023-09-18T23:35:54.640Z,0.70
2023-09-18T23:38:24.870Z,0.40
2023-09-18T23:40:53.277Z,0.27
2023-09-18T23:43:21.979Z,0.33
2023-09-18T23:45:55.617Z,0.30
2023-09-18T23:48:24.365Z,0.57
2023-09-18T23:50:54.027Z,0.40
2023-09-18T23:53:26.188Z,0.30
2023-09-18T23:55:59.446Z,0.30
2023-09-18T23:58:30.412Z,0.50
